CheckWX is a tool to help pilots better visualize weather data.  It is not intended as a substitute for an official pre-flight weather briefing.

14:14:26 UTC

KTQE METAR
Tekamah Municipal Airport
Tekamah, Nebraska, USA
Current

20 mins ago

KTQE 221354Z AUTO 32015KT 3SM -RA BR OVC009 10/09 A2988 RMK AO2 CIG 006V013 SLP111 P0015 T01000094
Observed
Apr-22 @ 13:54 UTC
Wind
  • 320° at 15 KTS
Visibility
3 SM
Flight Rules
IFR
Conditions
Light Rain, Mist
Cloud Levels
  • Overcast at 900' AGL
Temperature
10°C / 50°F
Dewpoint
C / 48°F
Humidity
94%
Altimeter
29.88" Hg
Pressure
1011.82 hPa
Current Rain
0.15"
Previous

52 mins ago

KTQE 221322Z AUTO 32010KT 1 3/4SM RA BR BKN008 OVC018 11/10 A2987 RMK AO2 CIG 005V010 P0006 T01060100
Observed
Apr-22 @ 13:22 UTC
Wind
  • 320° at 10 KTS
Visibility
1 3/4 SM
Flight Rules
IFR
Conditions
Rain, Mist
Cloud Levels
  • Broken at 800' AGL
  • Overcast at 1,800' AGL
Temperature
11°C / 52°F
Dewpoint
10°C / 50°F
Humidity
94%
Altimeter
29.87" Hg
Pressure
1011.52 hPa
Current Rain
0.06"
Previous

57 mins ago

KTQE 221317Z AUTO 31012KT 2 1/2SM RA BR SCT008 BKN018 OVC029 11/10 A2987 RMK AO2 P0003 T01060100
Observed
Apr-22 @ 13:17 UTC
Wind
  • 310° at 12 KTS
Visibility
2 1/2 SM
Flight Rules
IFR
Conditions
Rain, Mist
Cloud Levels
  • Scattered at 800' AGL
  • Broken at 1,800' AGL
  • Overcast at 2,900' AGL
Temperature
11°C / 52°F
Dewpoint
10°C / 50°F
Humidity
94%
Altimeter
29.87" Hg
Pressure
1011.52 hPa
Current Rain
0.03"